Kaneohe Bay MCAS (Marion E. Carl Field) Airport Kaneohe US
ICAO: PHNG
IATA:
Category: Medium
Scheduled Services:

Elevation: 24 ft
TransAlt. 18000 ft.

Airport Communications:
APP/DEP:125
ATIS:28.45
CLNC DEL:29.47
CTAF:120.7
GND:38.28
PMSV METRO:34.46
PTD:30.72
TWR:120.7

PHNG Zoom In..

Runways:

(A) RW 04 length 7771 ft width 200 ft
---- / hdg 41

(B) RW 22 length 7771 ft width 200 ft
---- / hdg 221

Location; PHNG
Day. 03 / Time. 01.57 Zulu
* Altimeter: 29.97
* Temperature: 32° c. 89.6°f.
* Wind from: 060° Speed 10 kn.
Dewpoint: 24° c.
Visibility: 10 Statute Miles.
Clouds: Scattered 2500 ft.
Clouds: Broken 4500 ft.

PHNG 030157Z 06010KT 10SM SCT025 BKN045 32/24 A2997 RMK AO2 SLP144 T03170244 $


Wind From 060°
Speed 10 kn.

 
 
jpsmedia worldairports.se 2020   terms of use